Time;durP1;ratioP1;P1;durP2;ratioP2;P2;SDS_P1;SDS_P2;PMS_P1;PMS_P2;Temp;Humidity;BMP_temperature;BMP_pressure;BME280_temperature;BME280_humidity;BME280_pressure;Samples;Min_cycle;Max_cycle;Signal;HPM_P1;HPM_P2
2023/12/08 00:02:06;;;;;;;52.63;20.67;;;1.00;99.90;;;;;;4994081;28;20110;-72
2023/12/08 00:04:32;;;;;;;50.30;19.40;;;1.10;99.90;;;;;;4993792;28;20023;-72
2023/12/08 00:06:57;;;;;;;53.10;21.15;;;1.00;99.90;;;;;;4993872;28;20118;-73
2023/12/08 00:09:23;;;;;;;51.58;18.17;;;1.10;99.90;;;;;;4993241;28;20124;-71
2023/12/08 00:11:48;;;;;;;53.63;19.88;;;1.10;99.90;;;;;;4993993;28;20022;-72
2023/12/08 00:14:14;;;;;;;56.00;21.05;;;1.10;99.90;;;;;;4993428;28;20027;-71
2023/12/08 00:16:41;;;;;;;55.60;19.90;;;1.10;99.90;;;;;;4992225;28;20030;-72
2023/12/08 00:19:07;;;;;;;50.33;20.50;;;1.10;99.90;;;;;;4993221;28;20037;-72
2023/12/08 00:21:32;;;;;;;52.83;19.92;;;1.10;99.90;;;;;;4993752;28;20023;-72
2023/12/08 00:23:58;;;;;;;47.30;17.25;;;1.10;99.90;;;;;;4991543;28;20401;-72
2023/12/08 00:26:23;;;;;;;59.45;20.48;;;1.10;99.90;;;;;;4992547;28;20074;-72
2023/12/08 00:28:49;;;;;;;46.97;19.65;;;1.10;99.90;;;;;;4992962;28;20037;-72
2023/12/08 00:31:14;;;;;;;49.35;20.15;;;1.20;99.90;;;;;;4993505;28;20509;-71
2023/12/08 00:33:41;;;;;;;53.88;20.13;;;1.10;99.90;;;;;;4993487;28;20023;-70
2023/12/08 00:36:15;;;;;;;51.70;20.10;;;1.10;99.90;;;;;;4993315;28;20026;-72
2023/12/08 00:38:41;;;;;;;43.03;17.35;;;1.10;99.90;;;;;;4992698;28;20030;-71
2023/12/08 00:41:08;;;;;;;50.95;19.98;;;1.10;99.90;;;;;;4991397;28;20026;-70
2023/12/08 00:43:34;;;;;;;55.42;19.85;;;1.10;99.90;;;;;;4993001;28;20023;-71
2023/12/08 00:45:59;;;;;;;47.53;19.75;;;1.10;99.90;;;;;;5007721;28;20027;-71
2023/12/08 00:48:25;;;;;;;48.25;18.83;;;1.10;99.90;;;;;;4992977;28;20042;-71
2023/12/08 00:50:51;;;;;;;47.85;19.60;;;1.10;99.90;;;;;;4993430;28;20097;-71
2023/12/08 00:53:16;;;;;;;45.25;18.23;;;1.10;99.90;;;;;;4993358;28;20026;-72
2023/12/08 00:55:42;;;;;;;39.72;15.05;;;1.10;99.90;;;;;;4991410;28;20022;-72
2023/12/08 00:58:07;;;;;;;41.83;17.88;;;1.10;99.90;;;;;;4992549;28;20089;-72
2023/12/08 01:00:33;;;;;;;47.03;18.20;;;1.10;99.90;;;;;;4991758;28;20026;-71
2023/12/08 01:02:59;;;;;;;47.83;18.48;;;1.10;99.90;;;;;;4991789;28;20051;-72
2023/12/08 01:05:24;;;;;;;43.63;18.83;;;1.10;99.90;;;;;;4993226;28;20025;-72
2023/12/08 01:07:50;;;;;;;45.72;19.20;;;1.10;99.90;;;;;;4993750;28;20043;-72
2023/12/08 01:10:15;;;;;;;43.58;17.60;;;1.10;99.90;;;;;;4993368;28;20030;-73
2023/12/08 01:12:42;;;;;;;44.38;19.20;;;1.10;99.90;;;;;;4992461;28;20084;-73
2023/12/08 01:15:08;;;;;;;40.55;17.58;;;1.10;99.90;;;;;;4993155;28;20019;-73
2023/12/08 01:17:34;;;;;;;40.72;17.35;;;1.10;99.90;;;;;;5005532;28;20065;-72
2023/12/08 01:19:59;;;;;;;39.30;17.67;;;1.10;99.90;;;;;;4990557;28;20065;-72
2023/12/08 01:22:27;;;;;;;41.22;15.80;;;1.10;99.90;;;;;;4992246;28;20028;-72
2023/12/08 01:24:53;;;;;;;38.33;16.75;;;1.10;99.90;;;;;;4992640;28;20019;-72
2023/12/08 01:27:19;;;;;;;41.90;16.55;;;1.10;99.90;;;;;;4991933;28;20114;-71
2023/12/08 01:29:44;;;;;;;37.75;16.80;;;1.00;99.90;;;;;;4992103;28;20107;-73
2023/12/08 01:32:10;;;;;;;36.70;15.38;;;1.00;99.90;;;;;;5006851;28;20147;-72
2023/12/08 01:34:35;;;;;;;40.85;16.42;;;1.00;99.90;;;;;;4992413;28;20027;-73
2023/12/08 01:37:01;;;;;;;32.72;13.60;;;1.00;99.90;;;;;;4992544;28;20062;-72
2023/12/08 01:39:27;;;;;;;44.88;15.70;;;1.00;99.90;;;;;;4991035;28;20035;-71
2023/12/08 01:41:52;;;;;;;41.30;15.77;;;1.00;99.90;;;;;;4992458;28;20034;-72
2023/12/08 01:44:18;;;;;;;39.72;17.05;;;1.00;99.90;;;;;;4992006;28;20080;-71
2023/12/08 01:46:45;;;;;;;37.42;15.48;;;1.00;99.90;;;;;;4990556;28;20077;-71
2023/12/08 01:49:11;;;;;;;32.53;14.65;;;1.00;99.90;;;;;;4990562;28;20022;-70
2023/12/08 01:51:37;;;;;;;37.38;15.60;;;1.00;99.90;;;;;;4992069;28;20034;-72
2023/12/08 01:54:04;;;;;;;38.42;16.70;;;1.00;99.90;;;;;;4990472;28;20117;-72
2023/12/08 01:56:30;;;;;;;35.78;14.15;;;1.00;99.90;;;;;;4990092;28;20045;-71
2023/12/08 01:58:56;;;;;;;34.83;14.55;;;1.00;99.90;;;;;;4991830;28;20046;-70
2023/12/08 02:01:22;;;;;;;41.08;16.33;;;1.10;99.90;;;;;;4992254;28;20384;-72
2023/12/08 02:03:51;;;;;;;38.78;15.73;;;1.00;99.90;;;;;;4991508;28;20030;-71
2023/12/08 02:06:20;;;;;;;38.40;16.15;;;1.10;99.90;;;;;;4990349;28;20042;-71
2023/12/08 02:08:49;;;;;;;36.20;15.27;;;1.00;99.90;;;;;;4991670;28;20095;-72
2023/12/08 02:11:16;;;;;;;42.15;15.18;;;1.00;99.90;;;;;;5006753;28;20097;-72
2023/12/08 02:13:42;;;;;;;36.95;15.60;;;1.00;99.90;;;;;;4989197;28;20042;-71
2023/12/08 02:16:15;;;;;;;34.90;15.50;;;1.00;99.90;;;;;;4990135;28;20038;-72
2023/12/08 02:18:42;;;;;;;33.22;14.80;;;0.90;99.90;;;;;;4991329;28;20031;-72
2023/12/08 02:21:11;;;;;;;32.72;14.48;;;0.90;99.90;;;;;;4990782;28;20018;-71
2023/12/08 02:23:36;;;;;;;35.60;15.25;;;0.90;99.90;;;;;;4990714;28;20030;-71
2023/12/08 02:26:05;;;;;;;32.67;14.20;;;0.90;99.90;;;;;;4991531;28;20139;-72
2023/12/08 02:28:31;;;;;;;32.15;15.32;;;0.90;99.90;;;;;;4989466;28;20121;-72
2023/12/08 02:30:59;;;;;;;32.72;14.80;;;0.90;99.90;;;;;;4991121;28;20504;-72
2023/12/08 02:33:32;;;;;;;31.83;13.98;;;0.90;99.90;;;;;;4990590;28;20460;-71
2023/12/08 02:36:01;;;;;;;33.17;14.30;;;0.90;99.90;;;;;;4990699;28;20023;-72
2023/12/08 02:38:27;;;;;;;33.95;14.63;;;0.90;99.90;;;;;;4990144;28;20050;-72
2023/12/08 02:40:55;;;;;;;36.70;13.98;;;0.90;99.90;;;;;;5006781;28;20030;-72
2023/12/08 02:43:33;;;;;;;30.75;12.63;;;0.90;99.90;;;;;;4988638;28;20077;-71
2023/12/08 02:45:59;;;;;;;30.58;12.82;;;0.90;99.90;;;;;;4990871;28;20950;-71
2023/12/08 02:48:24;;;;;;;31.65;13.02;;;0.90;99.90;;;;;;4991385;28;20031;-71
2023/12/08 02:50:51;;;;;;;32.88;14.18;;;0.90;99.90;;;;;;4992009;28;20038;-72
2023/12/08 02:53:16;;;;;;;32.75;13.52;;;0.90;99.90;;;;;;4991420;28;20046;-71
2023/12/08 02:55:42;;;;;;;34.58;12.95;;;0.90;99.90;;;;;;4991402;28;20018;-70
2023/12/08 02:58:07;;;;;;;36.42;14.07;;;0.90;99.90;;;;;;4990489;28;21410;-70
2023/12/08 03:00:33;;;;;;;31.58;13.45;;;1.00;99.90;;;;;;4990424;28;20027;-71
2023/12/08 03:02:59;;;;;;;32.08;13.15;;;1.00;99.90;;;;;;4990843;28;20077;-71
2023/12/08 03:05:24;;;;;;;30.98;12.95;;;1.00;99.90;;;;;;5010301;28;20058;-72
2023/12/08 03:07:50;;;;;;;32.30;13.00;;;1.00;99.90;;;;;;4997120;28;20855;-71
2023/12/08 03:10:15;;;;;;;29.10;12.90;;;1.10;99.90;;;;;;4997173;28;20117;-71
2023/12/08 03:12:41;;;;;;;32.40;12.75;;;1.10;99.90;;;;;;4997777;28;20026;-70
2023/12/08 03:15:07;;;;;;;36.45;13.30;;;1.10;99.90;;;;;;4997268;28;20030;-71
2023/12/08 03:17:33;;;;;;;29.90;13.52;;;1.10;99.90;;;;;;4995739;28;20042;-71
2023/12/08 03:19:59;;;;;;;33.42;13.27;;;1.10;99.90;;;;;;4996520;28;20030;-72
2023/12/08 03:22:25;;;;;;;28.45;12.75;;;1.00;99.90;;;;;;4996267;28;20019;-70
2023/12/08 03:24:50;;;;;;;29.83;12.77;;;1.00;99.90;;;;;;4997066;28;20027;-71
2023/12/08 03:27:16;;;;;;;29.20;11.95;;;0.90;99.90;;;;;;5012770;28;20039;-71
2023/12/08 03:29:41;;;;;;;32.28;14.20;;;1.00;99.90;;;;;;4996929;28;20081;-71
2023/12/08 03:32:07;;;;;;;32.90;13.90;;;1.00;99.90;;;;;;4996775;28;20018;-71
2023/12/08 03:34:33;;;;;;;28.25;12.50;;;1.00;99.90;;;;;;4995923;28;20021;-71
2023/12/08 03:36:59;;;;;;;32.20;13.13;;;1.00;99.90;;;;;;4995471;28;20038;-72
2023/12/08 03:39:24;;;;;;;31.80;13.52;;;0.90;99.90;;;;;;5012030;28;20034;-72
2023/12/08 03:41:50;;;;;;;31.95;13.57;;;0.90;99.90;;;;;;4995576;28;20049;-72
2023/12/08 03:44:16;;;;;;;33.50;13.40;;;0.90;99.90;;;;;;4995925;28;20026;-70
2023/12/08 03:46:44;;;;;;;32.67;13.68;;;0.90;99.90;;;;;;4997682;28;20057;-71
2023/12/08 03:49:10;;;;;;;29.98;13.45;;;0.80;99.90;;;;;;4996190;28;20090;-72
2023/12/08 03:51:36;;;;;;;33.67;13.85;;;0.80;99.90;;;;;;4995775;28;20061;-71
2023/12/08 03:54:02;;;;;;;32.08;13.60;;;0.80;99.90;;;;;;4995825;28;20022;-71
2023/12/08 03:56:27;;;;;;;30.38;12.68;;;0.80;99.90;;;;;;4995636;28;20105;-71
2023/12/08 03:58:53;;;;;;;32.95;13.02;;;0.70;99.90;;;;;;4996868;28;20105;-71
2023/12/08 04:01:19;;;;;;;33.47;13.30;;;0.70;99.90;;;;;;4997007;28;20049;-71
2023/12/08 04:03:45;;;;;;;31.92;13.55;;;0.80;99.90;;;;;;4996974;28;20025;-70
2023/12/08 04:06:11;;;;;;;33.20;14.05;;;0.80;99.90;;;;;;4996640;28;20042;-71
2023/12/08 04:08:37;;;;;;;29.75;13.65;;;0.90;99.90;;;;;;4995457;28;20145;-70
2023/12/08 04:11:03;;;;;;;32.67;13.80;;;0.90;99.90;;;;;;4996110;28;20086;-71
2023/12/08 04:13:28;;;;;;;34.05;13.48;;;0.90;99.90;;;;;;4996940;28;20023;-71
2023/12/08 04:15:54;;;;;;;35.58;13.68;;;0.90;99.90;;;;;;4995665;28;20026;-72
2023/12/08 04:18:19;;;;;;;30.50;13.88;;;0.90;99.90;;;;;;4991086;28;20485;-71
2023/12/08 04:20:45;;;;;;;34.88;14.90;;;0.90;99.90;;;;;;4993942;28;20068;-70
2023/12/08 04:23:10;;;;;;;35.13;13.80;;;0.90;99.90;;;;;;4993872;28;20077;-71
2023/12/08 04:25:36;;;;;;;31.67;14.27;;;0.90;99.90;;;;;;4993647;28;20062;-71
2023/12/08 04:28:03;;;;;;;31.40;13.73;;;1.00;99.90;;;;;;4993399;28;20042;-71
2023/12/08 04:30:29;;;;;;;31.75;14.02;;;1.00;99.90;;;;;;4991611;28;20161;-71
2023/12/08 04:32:55;;;;;;;34.38;12.73;;;1.00;99.90;;;;;;4992345;28;20030;-72
2023/12/08 04:35:21;;;;;;;33.20;15.07;;;1.00;99.90;;;;;;4991170;28;20085;-71
2023/12/08 04:37:46;;;;;;;35.70;15.50;;;1.00;99.90;;;;;;4992866;28;20027;-71
2023/12/08 04:40:12;;;;;;;35.92;13.93;;;1.00;99.90;;;;;;4993381;28;20034;-71
2023/12/08 04:42:38;;;;;;;36.50;15.43;;;1.00;99.90;;;;;;4993540;28;20105;-71
2023/12/08 04:45:04;;;;;;;36.78;14.48;;;1.00;99.90;;;;;;4992308;28;20042;-71
2023/12/08 04:47:30;;;;;;;34.65;15.73;;;1.00;99.90;;;;;;4992071;28;20066;-72
2023/12/08 04:49:55;;;;;;;36.20;15.23;;;1.00;99.90;;;;;;4993309;28;20451;-71
2023/12/08 04:52:21;;;;;;;32.40;13.90;;;1.00;99.90;;;;;;4994085;28;20034;-70
2023/12/08 04:54:47;;;;;;;36.35;15.30;;;1.00;99.90;;;;;;4992925;28;20038;-71
2023/12/08 04:57:12;;;;;;;31.92;14.70;;;1.00;99.90;;;;;;4993503;28;20019;-71
2023/12/08 04:59:39;;;;;;;34.47;14.77;;;1.00;99.90;;;;;;4990879;28;20026;-70
2023/12/08 05:02:04;;;;;;;35.55;15.77;;;1.00;99.90;;;;;;4990670;28;20069;-70
2023/12/08 05:04:30;;;;;;;38.13;14.73;;;1.00;99.90;;;;;;4992969;28;20023;-71
2023/12/08 05:06:55;;;;;;;38.30;16.42;;;1.00;99.90;;;;;;4992866;28;20039;-70
2023/12/08 05:09:21;;;;;;;35.03;15.30;;;1.00;99.90;;;;;;4992940;28;20030;-70
2023/12/08 05:11:47;;;;;;;37.28;14.20;;;1.00;99.90;;;;;;4993549;28;20455;-69
2023/12/08 05:14:13;;;;;;;33.20;14.45;;;1.00;99.90;;;;;;4992640;28;20033;-69
2023/12/08 05:16:39;;;;;;;35.67;14.77;;;1.00;99.90;;;;;;4993631;28;20074;-69
2023/12/08 05:19:05;;;;;;;35.33;14.77;;;1.00;99.90;;;;;;4992557;28;20023;-69
2023/12/08 05:21:30;;;;;;;37.20;14.80;;;1.00;99.90;;;;;;5007099;28;20038;-71
2023/12/08 05:23:56;;;;;;;33.28;14.80;;;1.10;99.90;;;;;;4993782;28;20027;-70
2023/12/08 05:26:23;;;;;;;41.33;15.23;;;1.10;99.90;;;;;;4992659;28;20073;-70
2023/12/08 05:28:48;;;;;;;38.38;16.17;;;1.10;99.90;;;;;;4992835;28;20141;-69
2023/12/08 05:31:14;;;;;;;37.97;15.50;;;1.10;99.90;;;;;;4990944;28;20054;-70
2023/12/08 05:33:40;;;;;;;36.83;14.85;;;1.10;99.90;;;;;;4990775;28;20034;-70
2023/12/08 05:36:06;;;;;;;35.70;15.52;;;1.10;99.90;;;;;;4992731;28;20078;-69
2023/12/08 05:38:31;;;;;;;39.83;15.82;;;1.10;99.90;;;;;;4990182;28;20057;-71
2023/12/08 05:40:57;;;;;;;40.15;16.63;;;1.10;99.90;;;;;;4991456;28;20059;-71
2023/12/08 05:43:23;;;;;;;41.55;17.23;;;1.00;99.90;;;;;;4991145;28;20030;-70
2023/12/08 05:45:48;;;;;;;34.42;13.95;;;1.00;99.90;;;;;;4991732;28;20058;-69
2023/12/08 05:48:14;;;;;;;37.30;15.95;;;1.00;99.90;;;;;;4991996;28;20056;-69
2023/12/08 05:50:40;;;;;;;44.70;17.60;;;1.00;99.90;;;;;;4988482;28;20031;-69
2023/12/08 05:53:05;;;;;;;42.42;16.90;;;1.00;99.90;;;;;;4988654;28;20027;-70
2023/12/08 05:55:31;;;;;;;37.30;16.15;;;1.00;99.90;;;;;;4991159;28;20124;-70
2023/12/08 05:57:56;;;;;;;39.92;15.43;;;1.00;99.90;;;;;;4990538;28;20034;-69
2023/12/08 06:00:22;;;;;;;43.50;17.17;;;1.00;99.90;;;;;;4990904;28;20076;-69
2023/12/08 06:02:48;;;;;;;44.70;17.45;;;1.00;99.90;;;;;;4988533;28;20029;-69
2023/12/08 06:05:15;;;;;;;40.97;16.50;;;1.10;99.90;;;;;;4991434;28;20031;-69
2023/12/08 06:07:40;;;;;;;39.72;16.75;;;1.10;99.90;;;;;;4991977;28;20046;-69
2023/12/08 06:10:11;;;;;;;41.67;17.55;;;1.10;99.90;;;;;;4991469;28;20161;-69
2023/12/08 06:12:37;;;;;;;40.38;16.88;;;1.10;99.90;;;;;;4991236;28;20026;-69
2023/12/08 06:15:05;;;;;;;39.00;16.08;;;1.10;99.90;;;;;;4989932;28;20027;-69
2023/12/08 06:17:31;;;;;;;40.80;15.70;;;1.10;99.90;;;;;;4991425;28;20034;-69
2023/12/08 06:19:57;;;;;;;41.53;16.48;;;1.10;99.90;;;;;;4992783;28;20026;-70
2023/12/08 06:22:22;;;;;;;38.55;16.17;;;1.10;99.90;;;;;;5005415;28;20030;-69
2023/12/08 06:24:48;;;;;;;38.63;16.23;;;1.10;99.90;;;;;;4992574;28;20360;-69
2023/12/08 06:27:15;;;;;;;37.38;16.98;;;1.10;99.90;;;;;;4983213;28;20054;-70
2023/12/08 06:29:40;;;;;;;42.08;17.45;;;1.10;99.90;;;;;;4991559;28;20030;-70
2023/12/08 06:32:06;;;;;;;36.83;16.52;;;1.10;99.90;;;;;;4987780;28;20029;-69
2023/12/08 06:34:32;;;;;;;40.50;16.83;;;1.10;99.90;;;;;;4982228;28;20042;-70
2023/12/08 06:36:58;;;;;;;40.90;16.33;;;1.20;99.90;;;;;;4988377;28;20121;-70
2023/12/08 06:39:24;;;;;;;40.17;17.30;;;1.10;99.90;;;;;;4987313;28;20028;-70
2023/12/08 06:41:49;;;;;;;36.03;14.98;;;1.10;99.90;;;;;;4989333;28;20690;-69
2023/12/08 06:44:15;;;;;;;40.38;17.13;;;1.20;99.90;;;;;;4991408;28;20132;-71
2023/12/08 06:46:42;;;;;;;38.88;16.80;;;1.20;99.90;;;;;;4987846;28;20867;-70
2023/12/08 06:49:08;;;;;;;42.90;16.77;;;1.20;99.90;;;;;;4985519;28;20046;-71
2023/12/08 06:51:35;;;;;;;40.75;17.08;;;1.20;99.90;;;;;;4985547;28;20492;-69
2023/12/08 06:54:02;;;;;;;37.25;15.65;;;1.20;99.90;;;;;;4990093;28;20069;-70
2023/12/08 06:56:28;;;;;;;42.30;16.92;;;1.20;99.90;;;;;;4990225;28;20041;-70
2023/12/08 06:58:54;;;;;;;38.72;16.52;;;1.20;99.90;;;;;;4992378;28;20512;-70
2023/12/08 07:01:19;;;;;;;42.20;16.20;;;1.20;99.90;;;;;;4988851;28;20045;-69
2023/12/08 07:03:45;;;;;;;38.53;16.40;;;1.20;99.90;;;;;;4987221;28;20053;-69
2023/12/08 07:06:10;;;;;;;41.78;17.10;;;1.30;99.90;;;;;;4990384;28;20027;-69
2023/12/08 07:08:36;;;;;;;39.00;16.98;;;1.30;99.90;;;;;;4991902;28;20054;-70
2023/12/08 07:11:02;;;;;;;41.17;16.35;;;1.20;99.90;;;;;;4991693;28;20027;-70
2023/12/08 07:13:28;;;;;;;48.97;17.73;;;1.30;99.90;;;;;;4991240;28;20031;-71
2023/12/08 07:15:53;;;;;;;36.70;15.95;;;1.30;99.90;;;;;;4991869;28;20149;-70
2023/12/08 07:18:19;;;;;;;36.20;16.27;;;1.30;99.90;;;;;;4990993;28;20026;-71
2023/12/08 07:20:45;;;;;;;37.08;16.00;;;1.30;99.90;;;;;;4991656;28;20019;-70
2023/12/08 07:23:10;;;;;;;39.67;15.98;;;1.30;99.90;;;;;;4990949;28;20031;-69
2023/12/08 07:25:36;;;;;;;37.78;16.05;;;1.30;99.90;;;;;;4991356;28;20110;-71
2023/12/08 07:28:02;;;;;;;40.90;16.58;;;1.30;99.90;;;;;;4991307;28;20038;-70
2023/12/08 07:30:27;;;;;;;36.78;16.05;;;1.30;99.90;;;;;;4990686;28;20090;-71
2023/12/08 07:32:53;;;;;;;38.40;16.17;;;1.30;99.90;;;;;;4991844;28;20022;-70
2023/12/08 07:35:19;;;;;;;33.13;14.88;;;1.30;99.90;;;;;;4988010;28;20054;-69
2023/12/08 07:37:45;;;;;;;42.33;17.17;;;1.30;99.90;;;;;;4983531;28;20077;-69
2023/12/08 07:40:11;;;;;;;44.67;16.58;;;1.30;99.90;;;;;;4988800;28;20139;-70
2023/12/08 07:42:37;;;;;;;45.88;18.65;;;1.30;99.90;;;;;;4987863;28;20500;-70
2023/12/08 07:45:06;;;;;;;43.28;16.65;;;1.30;99.90;;;;;;4988100;28;20037;-70
2023/12/08 07:47:32;;;;;;;35.97;14.77;;;1.30;99.90;;;;;;4990188;28;20043;-70
2023/12/08 07:49:58;;;;;;;38.22;15.85;;;1.40;99.90;;;;;;4986536;28;20068;-70
2023/12/08 07:52:24;;;;;;;42.42;16.90;;;1.40;99.90;;;;;;4994907;28;20018;-70
2023/12/08 07:54:50;;;;;;;41.83;17.10;;;1.40;99.90;;;;;;4993515;28;20045;-70
2023/12/08 07:57:15;;;;;;;44.03;18.70;;;1.40;99.90;;;;;;4993141;28;20084;-69
2023/12/08 07:59:41;;;;;;;42.75;17.15;;;1.40;99.90;;;;;;4994679;28;20018;-71
2023/12/08 08:02:07;;;;;;;41.53;17.73;;;1.40;99.90;;;;;;4992369;28;20038;-70
2023/12/08 08:04:32;;;;;;;39.45;16.60;;;1.40;99.90;;;;;;4990652;28;20023;-71
2023/12/08 08:06:58;;;;;;;37.03;16.10;;;1.40;99.90;;;;;;4991657;28;20042;-70
2023/12/08 08:09:23;;;;;;;43.00;17.30;;;1.40;99.90;;;;;;4993088;28;20043;-70
2023/12/08 08:11:49;;;;;;;40.28;17.67;;;1.30;99.90;;;;;;4992030;28;20078;-69
2023/12/08 08:14:14;;;;;;;38.03;15.35;;;1.40;99.90;;;;;;4991737;28;20069;-69
2023/12/08 08:16:40;;;;;;;40.60;15.80;;;1.30;99.90;;;;;;4990832;28;20042;-69
2023/12/08 08:19:06;;;;;;;36.42;15.18;;;1.40;99.90;;;;;;5009152;28;20420;-68
2023/12/08 08:21:31;;;;;;;38.95;16.45;;;1.30;99.90;;;;;;4993534;28;20034;-69
2023/12/08 08:23:57;;;;;;;41.08;16.27;;;1.30;99.90;;;;;;4993149;28;20090;-68
2023/12/08 08:26:24;;;;;;;37.15;15.00;;;1.20;99.90;;;;;;4991524;28;20051;-68
2023/12/08 08:28:49;;;;;;;42.95;17.02;;;1.20;99.90;;;;;;4991659;28;20038;-67
2023/12/08 08:31:18;;;;;;;41.20;17.25;;;1.20;99.90;;;;;;4992725;28;20057;-68
2023/12/08 08:33:43;;;;;;;40.17;16.67;;;1.20;99.90;;;;;;4989270;28;20023;-69
2023/12/08 08:36:10;;;;;;;44.42;16.70;;;1.20;99.90;;;;;;4991959;28;20025;-69
2023/12/08 08:38:36;;;;;;;44.83;16.98;;;1.20;99.90;;;;;;4993585;28;20033;-68
2023/12/08 08:41:02;;;;;;;42.17;15.63;;;1.20;99.90;;;;;;4992980;28;20055;-69
2023/12/08 08:43:27;;;;;;;39.80;16.23;;;1.20;99.90;;;;;;4992345;28;20033;-69
2023/12/08 08:45:53;;;;;;;46.55;17.30;;;1.20;99.90;;;;;;4994343;28;20392;-70
2023/12/08 08:48:18;;;;;;;41.15;17.75;;;1.20;99.90;;;;;;4994133;28;20039;-69
2023/12/08 08:50:44;;;;;;;39.95;16.77;;;1.20;99.90;;;;;;4992846;28;20037;-69
2023/12/08 08:53:09;;;;;;;42.72;17.35;;;1.20;99.90;;;;;;4993937;28;20037;-70
2023/12/08 08:55:35;;;;;;;39.88;15.90;;;1.20;99.90;;;;;;4993272;28;20077;-69
2023/12/08 08:58:00;;;;;;;42.13;16.50;;;1.20;99.90;;;;;;4993904;28;20030;-69
2023/12/08 09:00:26;;;;;;;48.47;17.58;;;1.20;99.90;;;;;;4993026;28;20220;-69
2023/12/08 09:02:52;;;;;;;39.60;13.80;;;1.20;99.90;;;;;;4989729;28;20041;-69
2023/12/08 09:05:19;;;;;;;47.65;17.73;;;1.20;99.90;;;;;;5004448;28;20035;-69
2023/12/08 09:07:45;;;;;;;42.10;17.40;;;1.20;99.90;;;;;;4991130;28;20054;-68
2023/12/08 09:10:10;;;;;;;43.13;16.45;;;1.20;99.90;;;;;;4992762;28;20099;-69
2023/12/08 09:12:36;;;;;;;41.45;16.95;;;1.20;99.90;;;;;;4993292;28;20053;-69
2023/12/08 09:15:03;;;;;;;42.40;17.25;;;1.20;99.90;;;;;;4991688;28;20064;-69
2023/12/08 09:17:29;;;;;;;45.67;18.48;;;1.20;99.90;;;;;;4990510;28;20079;-70
2023/12/08 09:19:54;;;;;;;46.35;17.73;;;1.20;99.90;;;;;;4989554;28;20488;-70
2023/12/08 09:22:20;;;;;;;41.92;16.88;;;1.10;99.90;;;;;;4990364;28;20575;-69
2023/12/08 09:24:45;;;;;;;36.95;14.93;;;1.10;99.90;;;;;;4990052;28;20693;-68
2023/12/08 09:27:11;;;;;;;43.15;17.70;;;1.10;99.90;;;;;;4989130;28;20078;-68
2023/12/08 09:29:36;;;;;;;42.28;16.95;;;1.10;99.90;;;;;;4992069;28;20022;-69
2023/12/08 09:32:02;;;;;;;48.90;18.30;;;1.10;99.90;;;;;;4990232;28;20026;-70
2023/12/08 09:34:28;;;;;;;45.80;18.88;;;1.10;99.90;;;;;;4993052;28;20098;-69
2023/12/08 09:36:54;;;;;;;48.92;18.90;;;1.10;99.90;;;;;;4991702;28;20027;-70
2023/12/08 09:39:20;;;;;;;45.38;16.55;;;1.10;99.90;;;;;;4986527;28;20019;-71
2023/12/08 09:41:46;;;;;;;44.38;17.58;;;1.10;99.90;;;;;;4991173;28;20046;-68
2023/12/08 09:44:15;;;;;;;46.30;17.08;;;1.10;99.90;;;;;;4990477;28;20034;-69
2023/12/08 09:46:44;;;;;;;47.22;18.27;;;1.10;99.90;;;;;;4990134;28;20542;-70
2023/12/08 09:49:25;;;;;;;42.15;17.05;;;1.10;99.90;;;;;;4980896;28;20114;-69
2023/12/08 09:51:50;;;;;;;49.13;18.67;;;1.10;99.90;;;;;;4990789;28;20035;-71
2023/12/08 09:54:16;;;;;;;35.20;13.32;;;1.10;99.90;;;;;;4989492;28;20089;-68
2023/12/08 09:56:43;;;;;;;46.10;16.77;;;1.20;99.90;;;;;;4990590;28;20061;-72
2023/12/08 09:59:10;;;;;;;45.47;17.65;;;1.10;99.90;;;;;;4991140;28;20030;-70
2023/12/08 10:01:36;;;;;;;46.65;18.92;;;1.10;99.90;;;;;;4993711;28;20042;-71
2023/12/08 10:04:02;;;;;;;39.80;14.80;;;1.10;99.90;;;;;;4989621;28;20030;-72
2023/12/08 10:06:28;;;;;;;42.58;17.55;;;1.10;99.90;;;;;;5006067;28;20046;-74
2023/12/08 10:08:58;;;;;;;39.92;13.93;;;1.10;99.90;;;;;;4984555;28;20070;-71
2023/12/08 10:11:24;;;;;;;46.00;15.52;;;1.10;99.90;;;;;;4988985;28;20046;-72
2023/12/08 10:13:51;;;;;;;50.45;19.02;;;1.10;99.90;;;;;;5005331;28;20022;-73
2023/12/08 10:16:16;;;;;;;42.42;14.68;;;1.10;99.90;;;;;;4991639;28;20014;-70
2023/12/08 10:18:42;;;;;;;49.60;18.55;;;1.10;99.90;;;;;;4991277;28;20095;-71
2023/12/08 10:21:15;;;;;;;50.03;20.45;;;1.10;99.90;;;;;;5006322;28;20025;-74
2023/12/08 10:23:44;;;;;;;51.72;19.52;;;1.10;99.90;;;;;;4989752;28;20038;-74
2023/12/08 10:26:12;;;;;;;55.25;21.98;;;1.20;99.90;;;;;;4991582;28;20069;-77
2023/12/08 10:28:42;;;;;;;50.65;19.45;;;1.20;99.90;;;;;;4991088;28;20057;-73
2023/12/08 10:31:09;;;;;;;48.20;17.75;;;1.20;99.90;;;;;;4990192;28;20509;-73
2023/12/08 10:33:34;;;;;;;48.05;19.20;;;1.20;99.90;;;;;;4989600;28;20022;-72
2023/12/08 10:36:01;;;;;;;48.33;18.83;;;1.20;99.90;;;;;;4992345;28;20033;-72
2023/12/08 10:38:26;;;;;;;42.85;15.73;;;1.20;99.90;;;;;;4991473;28;20097;-74
2023/12/08 10:40:52;;;;;;;49.40;17.67;;;1.20;99.90;;;;;;4990294;28;20050;-73
2023/12/08 10:43:28;;;;;;;45.25;18.85;;;1.30;99.90;;;;;;4991796;28;20023;-71
2023/12/08 10:45:55;;;;;;;46.85;18.20;;;1.20;99.90;;;;;;4991056;28;20082;-73
2023/12/08 10:48:22;;;;;;;45.90;17.70;;;1.20;99.90;;;;;;4989914;28;20053;-71
2023/12/08 10:50:49;;;;;;;35.20;12.93;;;1.20;99.90;;;;;;4987187;28;20134;-70
2023/12/08 10:53:19;;;;;;;48.55;19.13;;;1.20;99.90;;;;;;4989088;28;20054;-74
2023/12/08 10:55:52;;;;;;;48.42;18.70;;;1.20;99.90;;;;;;4989666;28;20045;-75
2023/12/08 10:58:21;;;;;;;38.28;14.90;;;1.20;99.90;;;;;;4990688;28;20022;-71
2023/12/08 11:00:51;;;;;;;48.80;18.23;;;1.20;99.90;;;;;;4991371;28;20019;-75
2023/12/08 11:03:19;;;;;;;44.35;17.42;;;1.20;99.90;;;;;;4986432;28;20227;-74
2023/12/08 11:05:48;;;;;;;46.33;18.45;;;1.20;99.90;;;;;;4990515;28;20026;-74
2023/12/08 11:08:17;;;;;;;52.03;18.70;;;1.20;99.90;;;;;;4991961;28;20026;-72
2023/12/08 11:10:52;;;;;;;45.80;18.25;;;1.20;99.90;;;;;;4989471;28;20030;-73
2023/12/08 11:13:27;;;;;;;43.15;16.85;;;1.20;99.90;;;;;;4986768;28;20135;-72
2023/12/08 11:16:08;;;;;;;43.58;17.75;;;1.20;99.90;;;;;;4989491;28;20042;-73
2023/12/08 11:18:36;;;;;;;53.67;19.85;;;1.20;99.90;;;;;;4990429;28;20029;-72
2023/12/08 11:21:10;;;;;;;42.10;16.75;;;1.20;99.90;;;;;;4984070;28;20026;-71
2023/12/08 11:23:36;;;;;;;;;;;1.20;99.90;;;;;;4981848;28;20031;-73
2023/12/08 11:26:28;;;;;;;39.58;15.75;;;1.20;99.90;;;;;;4984026;28;19926;-72
2023/12/08 11:29:04;;;;;;;48.40;18.58;;;1.30;99.90;;;;;;4975126;28;20137;-74
2023/12/08 11:31:50;;;;;;;51.40;19.60;;;1.30;99.90;;;;;;4995302;28;20110;-71
2023/12/08 11:34:28;;;;;;;46.80;18.02;;;1.30;99.90;;;;;;4993522;28;20030;-71
2023/12/08 11:36:55;;;;;;;49.67;18.23;;;1.30;99.90;;;;;;4995359;28;20082;-71
2023/12/08 11:39:40;;;;;;;50.97;19.55;;;1.30;99.90;;;;;;4994609;28;20030;-74
2023/12/08 11:42:20;;;;;;;53.30;21.00;;;1.30;99.90;;;;;;4983832;28;20034;-75
2023/12/08 11:44:47;;;;;;;44.38;18.60;;;1.30;99.90;;;;;;4983276;28;20078;-72
2023/12/08 11:47:14;;;;;;;40.05;16.25;;;1.30;99.90;;;;;;4993210;28;20027;-73
2023/12/08 11:49:43;;;;;;;57.25;20.35;;;1.30;99.90;;;;;;4995761;28;20014;-73
2023/12/08 11:52:34;;;;;;;52.50;19.02;;;1.30;99.90;;;;;;4993672;28;20097;-72
2023/12/08 11:55:00;;;;;;;50.97;20.52;;;1.40;99.90;;;;;;4994548;28;20027;-74
2023/12/08 11:57:27;;;;;;;50.53;20.00;;;1.40;99.90;;;;;;4994737;28;20030;-72
2023/12/08 11:59:56;;;;;;;55.83;20.02;;;1.40;99.90;;;;;;4994890;28;20038;-74
2023/12/08 12:02:23;;;;;;;53.10;21.20;;;1.40;99.90;;;;;;4996097;28;20118;-71
2023/12/08 12:04:49;;;;;;;48.72;19.35;;;1.40;99.90;;;;;;4993516;28;20037;-72
2023/12/08 12:07:21;;;;;;;52.97;20.45;;;1.50;99.90;;;;;;4993306;28;20042;-72
2023/12/08 12:09:49;;;;;;;43.58;19.30;;;1.50;99.90;;;;;;4995459;28;20033;-73
2023/12/08 12:12:28;;;;;;;53.17;19.85;;;1.50;99.90;;;;;;4995308;28;20034;-72
2023/12/08 12:14:55;;;;;;;32.15;12.30;;;1.50;99.90;;;;;;4995848;28;20023;-73
2023/12/08 12:17:24;;;;;;;51.65;19.80;;;1.50;99.90;;;;;;4992311;28;20022;-73
2023/12/08 12:19:51;;;;;;;58.20;21.95;;;1.50;99.90;;;;;;4991830;28;20074;-73
2023/12/08 12:22:17;;;;;;;58.63;21.92;;;1.50;99.90;;;;;;4994084;28;20022;-71
2023/12/08 12:24:43;;;;;;;52.90;20.60;;;1.50;99.90;;;;;;4993556;28;20057;-74
2023/12/08 12:27:09;;;;;;;52.92;20.33;;;1.50;99.90;;;;;;4993912;28;20043;-71
2023/12/08 12:29:34;;;;;;;58.45;20.40;;;1.50;99.90;;;;;;4993502;28;20041;-71
2023/12/08 12:32:00;;;;;;;52.58;20.70;;;1.50;99.90;;;;;;4994973;28;20027;-73
2023/12/08 12:34:26;;;;;;;47.70;19.30;;;1.50;99.90;;;;;;4995141;28;20113;-72
2023/12/08 12:36:51;;;;;;;50.00;20.65;;;1.50;99.90;;;;;;4993176;28;20130;-72